sensor_id;sensor_type;location;lat;lon;timestamp;pressure;altitude;pressure_sealevel;temperature;humidity
76044;BME280;64740;34.694;33.088;2023-04-24T08:31:31;1040;;;21.3;48.9
76044;BME280;64740;34.694;33.088;2023-04-24T08:36:41;1036.5;;;23.8;49.7
76044;BME280;64740;34.694;33.088;2023-04-24T08:41:09;1036.5;;;23.8;50.3
76044;BME280;64740;34.694;33.088;2023-04-24T08:46:21;1036.6;;;23.8;50.5
76044;BME280;64740;34.694;33.088;2023-04-24T08:51:45;1036.6;;;23.8;50.8
76044;BME280;64740;34.694;33.088;2023-04-24T08:56:45;1036.7;;;23.8;50.6
76044;BME280;64740;34.694;33.088;2023-04-24T09:01:09;1036.6;;;23.8;50.6
76044;BME280;64740;34.694;33.088;2023-04-24T09:06:54;1036.6;;;23.9;50.5
76044;BME280;64740;34.694;33.088;2023-04-24T09:11:29;1036.6;;;23.9;50.4
76044;BME280;64740;34.694;33.088;2023-04-24T09:16:19;1036.6;;;23.9;50.5
76044;BME280;64740;34.694;33.088;2023-04-24T09:21:39;1036.6;;;23.9;51
76044;BME280;64740;34.694;33.088;2023-04-24T09:26:55;1036.6;;;24;51.1
76044;BME280;64740;34.694;33.088;2023-04-24T09:31:19;1036.6;;;24;51.3
76044;BME280;64740;34.694;33.088;2023-04-24T09:36:41;1036.6;;;24;51.4
76044;BME280;64740;34.694;33.088;2023-04-24T09:41:43;1036.6;;;24;51.4
76044;BME280;64740;34.694;33.088;2023-04-24T09:46:44;1036.6;;;24.1;51.7
76044;BME280;64740;34.694;33.088;2023-04-24T09:51:35;1036.6;;;24.2;51.5
76044;BME280;64740;34.694;33.088;2023-04-24T09:56:27;1036.7;;;24.3;51.4
76044;BME280;64740;34.694;33.088;2023-04-24T10:01:51;1036.7;;;24.3;51.2
76044;BME280;64740;34.694;33.088;2023-04-24T10:06:53;1036.7;;;24.4;51.3
76044;BME280;64740;34.694;33.088;2023-04-24T10:11:33;1036.7;;;24.6;50.8
76044;BME280;64740;34.694;33.088;2023-04-24T10:16:17;1036.7;;;24.7;50.6
76044;BME280;64740;34.694;33.088;2023-04-24T10:21:31;1036.8;;;24.8;50.5
76044;BME280;64740;34.694;33.088;2023-04-24T10:26:09;1036.8;;;25;50.1
76044;BME280;64740;34.694;33.088;2023-04-24T10:31:33;1036.8;;;25.2;49.6
76044;BME280;64740;34.694;33.088;2023-04-24T10:36:53;1036.8;;;25.5;48.6
76044;BME280;64740;34.694;33.088;2023-04-24T10:41:21;1036.8;;;25.7;48.2
76044;BME280;64740;34.694;33.088;2023-04-24T10:46:19;1036.7;;;25.9;47.5
76044;BME280;64740;34.694;33.088;2023-04-24T10:51:53;1036.7;;;26.1;46.6
76044;BME280;64740;34.694;33.088;2023-04-24T10:56:15;1036.6;;;26.3;45.5
76044;BME280;64740;34.694;33.088;2023-04-24T11:01:39;1036.6;;;26.6;44.6
76044;BME280;64740;34.694;33.088;2023-04-24T11:06:09;1036.6;;;26.8;44
76044;BME280;64740;34.694;33.088;2023-04-24T11:11:44;1036.6;;;27.1;43.9
76044;BME280;64740;34.694;33.088;2023-04-24T11:16:42;1036.5;;;27.3;43.8
76044;BME280;64740;34.694;33.088;2023-04-24T11:21:31;1036.5;;;27.5;43.8
76044;BME280;64740;34.694;33.088;2023-04-24T11:26:31;1036.5;;;27.7;43.1
76044;BME280;64740;34.694;33.088;2023-04-24T11:31:44;1036.5;;;27.8;43.2
76044;BME280;64740;34.694;33.088;2023-04-24T11:36:09;1036.6;;;27.9;43.4
76044;BME280;64740;34.694;33.088;2023-04-24T11:41:31;1036.6;;;28;43.1
76044;BME280;64740;34.694;33.088;2023-04-24T11:46:09;1036.5;;;27.9;43.4
76044;BME280;64740;34.694;33.088;2023-04-24T11:51:27;1036.6;;;27.6;43.7
76044;BME280;64740;34.694;33.088;2023-04-24T11:56:51;1036.6;;;27.4;44.1
76044;BME280;64740;34.694;33.088;2023-04-24T12:01:45;1036.5;;;27.6;43.7
76044;BME280;64740;34.694;33.088;2023-04-24T12:06:21;1036.5;;;27.6;43.5
76044;BME280;64740;34.694;33.088;2023-04-24T12:11:52;1036.5;;;27.6;43.6
76044;BME280;64740;34.694;33.088;2023-04-24T12:16:32;1036.5;;;27.6;43.5
76044;BME280;64740;34.694;33.088;2023-04-24T12:21:31;1036.5;;;27.7;43.3
76044;BME280;64740;34.694;33.088;2023-04-24T12:26:42;1036.5;;;27.8;43.2
76044;BME280;64740;34.694;33.088;2023-04-24T12:31:55;1036.5;;;27.9;43.3
76044;BME280;64740;34.694;33.088;2023-04-24T12:36:21;1036.5;;;27.9;43
76044;BME280;64740;34.694;33.088;2023-04-24T12:41:55;1036.4;;;28;42.7
76044;BME280;64740;34.694;33.088;2023-04-24T12:46:53;1036.4;;;28.2;42.1
76044;BME280;64740;34.694;33.088;2023-04-24T12:51:11;1036.3;;;28.2;42.3
76044;BME280;64740;34.694;33.088;2023-04-24T12:56:41;1036.4;;;28.1;42.4
76044;BME280;64740;34.694;33.088;2023-04-24T13:01:45;1036.3;;;28.1;42.2
76044;BME280;64740;34.694;33.088;2023-04-24T13:06:41;1036.3;;;28.2;42.1
76044;BME280;64740;34.694;33.088;2023-04-24T13:11:19;1036.4;;;28.2;41.6
76044;BME280;64740;34.694;33.088;2023-04-24T13:16:09;1036.4;;;28.4;41.4
76044;BME280;64740;34.694;33.088;2023-04-24T13:21:51;1036.3;;;28.5;41
76044;BME280;64740;34.694;33.088;2023-04-24T13:26:39;1036.2;;;28.7;39.7
76044;BME280;64740;34.694;33.088;2023-04-24T13:31:09;1036.3;;;28.9;38.8
76044;BME280;64740;34.694;33.088;2023-04-24T13:36:33;1036.2;;;28.9;39.1
76044;BME280;64740;34.694;33.088;2023-04-24T13:41:39;1036.2;;;28.8;39.7
76044;BME280;64740;34.694;33.088;2023-04-24T13:46:09;1036.2;;;28.6;40.3
76044;BME280;64740;34.694;33.088;2023-04-24T13:51:32;1036.2;;;28.6;40.5
76044;BME280;64740;34.694;33.088;2023-04-24T13:56:43;1036.2;;;28.6;40.1
76044;BME280;64740;34.694;33.088;2023-04-24T14:01:21;1036.1;;;28.5;40.4
76044;BME280;64740;34.694;33.088;2023-04-24T14:06:51;1036;;;28.6;40.3
76044;BME280;64740;34.694;33.088;2023-04-24T14:11:09;1036;;;28.7;39.8
76044;BME280;64740;34.694;33.088;2023-04-24T14:16:31;1036;;;28.7;39.8
76044;BME280;64740;34.694;33.088;2023-04-24T14:21:39;1036;;;28.7;39.9
76044;BME280;64740;34.694;33.088;2023-04-24T14:26:51;1036;;;28.6;39.8
76044;BME280;64740;34.694;33.088;2023-04-24T14:31:19;1036;;;28.6;39.9
76044;BME280;64740;34.694;33.088;2023-04-24T14:36:43;1036;;;28.5;39.9
76044;BME280;64740;34.694;33.088;2023-04-24T14:41:41;1036;;;28.4;40.1
76044;BME280;64740;34.694;33.088;2023-04-24T14:46:45;1036;;;28.3;39.5
76044;BME280;64740;34.694;33.088;2023-04-24T14:51:35;1036.1;;;28.4;39.2
76044;BME280;64740;34.694;33.088;2023-04-24T14:56:21;1036.1;;;28.3;38.8
76044;BME280;64740;34.694;33.088;2023-04-24T15:01:51;1036.2;;;28.3;38.7
76044;BME280;64740;34.694;33.088;2023-04-24T15:06:53;1036.1;;;28.2;39.4
76044;BME280;64740;34.694;33.088;2023-04-24T15:11:21;1036.1;;;28.1;39.9
76044;BME280;64740;34.694;33.088;2023-04-24T15:16:53;1036;;;27.9;40.6
76044;BME280;64740;34.694;33.088;2023-04-24T15:21:31;1036;;;27.9;40.6
76044;BME280;64740;34.694;33.088;2023-04-24T15:26:19;1036;;;28;40.9
76044;BME280;64740;34.694;33.088;2023-04-24T15:31:31;1035.9;;;27.9;40.9
76044;BME280;64740;34.694;33.088;2023-04-24T15:36:55;1035.7;;;27.7;41.3
76044;BME280;64740;34.694;33.088;2023-04-24T15:41:19;1035.7;;;27.5;41.8
76044;BME280;64740;34.694;33.088;2023-04-24T15:46:29;1035.7;;;27.5;42.1
76044;BME280;64740;34.694;33.088;2023-04-24T15:51:55;1035.7;;;27.4;42.7
76044;BME280;64740;34.694;33.088;2023-04-24T15:56:31;1035.7;;;27.1;43.2
76044;BME280;64740;34.694;33.088;2023-04-24T16:01:41;1035.7;;;26.8;43.8
76044;BME280;64740;34.694;33.088;2023-04-24T16:06:09;1035.7;;;26.4;44.9
76044;BME280;64740;34.694;33.088;2023-04-24T16:11:43;1035.7;;;26.1;45.6
76044;BME280;64740;34.694;33.088;2023-04-24T16:16:39;1035.7;;;25.9;45.7
76044;BME280;64740;34.694;33.088;2023-04-24T16:21:31;1035.7;;;25.7;45.8
76044;BME280;64740;34.694;33.088;2023-04-24T16:26:31;1035.7;;;25.5;46.5
76044;BME280;64740;34.694;33.088;2023-04-24T16:31:39;1035.8;;;25.3;47.4
76044;BME280;64740;34.694;33.088;2023-04-24T16:36:09;1035.8;;;25.1;47.7
76044;BME280;64740;34.694;33.088;2023-04-24T16:41:31;1035.8;;;25;47.9
76044;BME280;64740;34.694;33.088;2023-04-24T16:46:09;1035.9;;;24.9;47.9
76044;BME280;64740;34.694;33.088;2023-04-24T16:51:27;1035.8;;;24.8;48
76044;BME280;64740;34.694;33.088;2023-04-24T16:56:43;1035.8;;;24.8;47.9
76044;BME280;64740;34.694;33.088;2023-04-24T17:01:45;1035.8;;;24.7;47.9
76044;BME280;64740;34.694;33.088;2023-04-24T17:06:15;1035.9;;;24.6;48.2
76044;BME280;64740;34.694;33.088;2023-04-24T17:11:53;1035.9;;;24.4;48.2
76044;BME280;64740;34.694;33.088;2023-04-24T17:16:31;1036;;;24.3;48.4
76044;BME280;64740;34.694;33.088;2023-04-24T17:21:09;1036;;;24.2;48.6
76044;BME280;64740;34.694;33.088;2023-04-24T17:26:29;1036.1;;;24.1;48.7
76044;BME280;64740;34.694;33.088;2023-04-24T17:31:41;1036;;;24.1;48.8
76044;BME280;64740;34.694;33.088;2023-04-24T17:36:33;1036.1;;;24.1;48.9
76044;BME280;64740;34.694;33.088;2023-04-24T17:41:41;1036.2;;;24;48.8
76044;BME280;64740;34.694;33.088;2023-04-24T17:46:41;1036.1;;;23.9;48.9
76044;BME280;64740;34.694;33.088;2023-04-24T17:51:45;1036.1;;;23.8;49
76044;BME280;64740;34.694;33.088;2023-04-24T17:56:29;1036.2;;;23.8;49.1
76044;BME280;64740;34.694;33.088;2023-04-24T18:01:21;1036.3;;;23.7;49.3
76044;BME280;64740;34.694;33.088;2023-04-24T18:06:55;1036.3;;;23.7;49.5
76044;BME280;64740;34.694;33.088;2023-04-24T18:11:41;1036.3;;;23.7;50.6
76044;BME280;64740;34.694;33.088;2023-04-24T18:16:21;1036.3;;;23.7;51
76044;BME280;64740;34.694;33.088;2023-04-24T18:21:55;1036.4;;;23.7;50.5
76044;BME280;64740;34.694;33.088;2023-04-24T18:26:19;1036.5;;;23.6;47.9
76044;BME280;64740;34.694;33.088;2023-04-24T18:31:09;1036.5;;;23.6;46.6
76044;BME280;64740;34.694;33.088;2023-04-24T18:36:31;1036.5;;;23.6;45.8
76044;BME280;64740;34.694;33.088;2023-04-24T18:41:55;1036.6;;;23.5;46.9
76044;BME280;64740;34.694;33.088;2023-04-24T18:46:19;1036.6;;;23.5;47.9
76044;BME280;64740;34.694;33.088;2023-04-24T18:51:27;1036.6;;;23.4;48.3
76044;BME280;64740;34.694;33.088;2023-04-24T18:56:53;1036.6;;;23.3;48.5
76044;BME280;64740;34.694;33.088;2023-04-24T19:01:41;1036.6;;;23.1;48.7
76044;BME280;64740;34.694;33.088;2023-04-24T19:06:15;1036.7;;;23;48.8
76044;BME280;64740;34.694;33.088;2023-04-24T19:11:19;1036.6;;;23;48.8
76044;BME280;64740;34.694;33.088;2023-04-24T19:16:51;1036.6;;;23;48.7
76044;BME280;64740;34.694;33.088;2023-04-24T19:21:39;1036.6;;;22.8;48.7
76044;BME280;64740;34.694;33.088;2023-04-24T19:26:19;1036.6;;;22.7;48.8
76044;BME280;64740;34.694;33.088;2023-04-24T19:31:21;1036.7;;;22.6;48.8
76044;BME280;64740;34.694;33.088;2023-04-24T19:36:17;1036.7;;;22.6;48.7
76044;BME280;64740;34.694;33.088;2023-04-24T19:41:09;1036.8;;;22.6;48.8
76044;BME280;64740;34.694;33.088;2023-04-24T19:46:19;1036.8;;;22.6;48.9
76044;BME280;64740;34.694;33.088;2023-04-24T19:51:19;1036.8;;;22.5;48.7
76044;BME280;64740;34.694;33.088;2023-04-24T19:56:21;1036.8;;;22.5;48.8
76044;BME280;64740;34.694;33.088;2023-04-24T20:01:51;1036.8;;;22.5;48.4
76044;BME280;64740;34.694;33.088;2023-04-24T20:06:45;1036.8;;;22.4;48.5
76044;BME280;64740;34.694;33.088;2023-04-24T20:11:09;1036.8;;;22.4;48.4
76044;BME280;64740;34.694;33.088;2023-04-24T20:16:55;1036.9;;;22.2;48.4
76044;BME280;64740;34.694;33.088;2023-04-24T20:21:09;1036.9;;;22.1;48.6
76044;BME280;64740;34.694;33.088;2023-04-24T20:26:21;1036.9;;;22.1;48.5
76044;BME280;64740;34.694;33.088;2023-04-24T20:31:39;1036.9;;;22;48.6
76044;BME280;64740;34.694;33.088;2023-04-24T20:36:53;1036.9;;;22;48.8
76044;BME280;64740;34.694;33.088;2023-04-24T20:41:19;1036.8;;;22;48.9
76044;BME280;64740;34.694;33.088;2023-04-24T20:46:51;1036.8;;;22;48.9
76044;BME280;64740;34.694;33.088;2023-04-24T20:51:39;1036.8;;;22;48.7
76044;BME280;64740;34.694;33.088;2023-04-24T20:56:11;1036.7;;;21.9;48.5
76044;BME280;64740;34.694;33.088;2023-04-24T21:01:25;1036.8;;;21.8;48.4
76044;BME280;64740;34.694;33.088;2023-04-24T21:06:09;1036.8;;;21.7;48.5
76044;BME280;64740;34.694;33.088;2023-04-24T21:11:49;1036.9;;;21.7;48.7
76044;BME280;64740;34.694;33.088;2023-04-24T21:16:51;1036.9;;;21.6;48.8
76044;BME280;64740;34.694;33.088;2023-04-24T21:21:09;1037;;;21.6;49.2
76044;BME280;64740;34.694;33.088;2023-04-24T21:26:51;1037;;;21.6;48.5
76044;BME280;64740;34.694;33.088;2023-04-24T21:31:09;1036.9;;;21.5;48.5
76044;BME280;64740;34.694;33.088;2023-04-24T21:36:11;1036.9;;;21.4;48.7
76044;BME280;64740;34.694;33.088;2023-04-24T21:41:33;1036.9;;;21.4;48.9
76044;BME280;64740;34.694;33.088;2023-04-24T21:46:55;1036.9;;;21.4;48.6
76044;BME280;64740;34.694;33.088;2023-04-24T21:51:21;1036.9;;;21.4;48.9
76044;BME280;64740;34.694;33.088;2023-04-24T21:56:11;1036.9;;;21.4;49.2
76044;BME280;64740;34.694;33.088;2023-04-24T22:01:55;1036.9;;;21.4;48.9
76044;BME280;64740;34.694;33.088;2023-04-24T22:06:29;1036.9;;;21.3;48.9
76044;BME280;64740;34.694;33.088;2023-04-24T22:11:11;1036.9;;;21.1;48.8
76044;BME280;64740;34.694;33.088;2023-04-24T22:16:21;1036.8;;;20.9;49
76044;BME280;64740;34.694;33.088;2023-04-24T22:21:53;1036.8;;;20.9;48.9
76044;BME280;64740;34.694;33.088;2023-04-24T22:26:41;1036.8;;;20.9;48.9
76044;BME280;64740;34.694;33.088;2023-04-24T22:31:11;1036.7;;;20.9;49
76044;BME280;64740;34.694;33.088;2023-04-24T22:36:33;1036.7;;;20.8;49.4
76044;BME280;64740;34.694;33.088;2023-04-24T22:41:43;1036.7;;;20.7;49.1
76044;BME280;64740;34.694;33.088;2023-04-24T22:46:11;1036.7;;;20.6;49.2
76044;BME280;64740;34.694;33.088;2023-04-24T22:51:33;1036.8;;;20.6;49.3
76044;BME280;64740;34.694;33.088;2023-04-24T22:56:11;1036.8;;;20.7;49.3
76044;BME280;64740;34.694;33.088;2023-04-24T23:01:11;1036.7;;;20.7;48.9
76044;BME280;64740;34.694;33.088;2023-04-24T23:06:43;1036.7;;;20.8;48.6
76044;BME280;64740;34.694;33.088;2023-04-24T23:11:35;1036.7;;;21;48.8
76044;BME280;64740;34.694;33.088;2023-04-24T23:16:11;1036.6;;;21.1;48.3
76044;BME280;64740;34.694;33.088;2023-04-24T23:21:48;1036.6;;;21.1;48.2
76044;BME280;64740;34.694;33.088;2023-04-24T23:26:11;1036.6;;;21;48
76044;BME280;64740;34.694;33.088;2023-04-24T23:31:23;1036.5;;;20.9;48.2
76044;BME280;64740;34.694;33.088;2023-04-24T23:36:41;1036.6;;;20.8;48
76044;BME280;64740;34.694;33.088;2023-04-24T23:41:53;1036.5;;;20.9;48
76044;BME280;64740;34.694;33.088;2023-04-24T23:46:23;1036.5;;;20.9;48
76044;BME280;64740;34.694;33.088;2023-04-24T23:51:53;1036.4;;;20.9;47.8
76044;BME280;64740;34.694;33.088;2023-04-24T23:56:55;1036.4;;;20.9;47.7
